Time;durP1;ratioP1;P1;durP2;ratioP2;P2;SDS_P1;SDS_P2;PMS_P1;PMS_P2;Temp;Humidity;BMP_temperature;BMP_pressure;BME280_temperature;BME280_humidity;BME280_pressure;Samples;Min_cycle;Max_cycle;Signal;HPM_P1;HPM_P2
2023/09/17 14:14:51;;;;;;;;;16.00;13.67;;;;;;;;5103135;27;13500;-70
2023/09/17 14:17:16;;;;;;;;;15.00;14.67;;;;;;;;5104628;28;8941;-70
2023/09/17 14:19:42;;;;;;;;;15.00;14.00;;;;;;;;5105838;28;8950;-69
2023/09/17 14:22:07;;;;;;;;;18.67;17.67;;;;;;;;5106245;28;8792;-70
2023/09/17 14:24:33;;;;;;;;;20.67;18.33;;;;;;;;5121278;27;8861;-70
2023/09/17 14:27:00;;;;;;;;;16.25;15.75;;;;;;;;5127189;27;9539;-69
2023/09/17 14:29:26;;;;;;;;;16.50;16.50;;;;;;;;5128387;27;8808;-70
2023/09/17 14:31:51;;;;;;;;;16.67;14.33;;;;;;;;5128127;27;8785;-75
2023/09/17 14:34:16;;;;;;;;;17.33;17.33;;;;;;;;5128169;27;8797;-75
2023/09/17 14:36:41;;;;;;;;;17.67;17.67;;;;;;;;5127056;27;8934;-75
2023/09/17 14:39:07;;;;;;;;;19.00;17.00;;;;;;;;5120032;28;8819;-75
2023/09/17 14:41:32;;;;;;;;;18.67;16.67;;;;;;;;5107758;28;8864;-76
2023/09/17 14:43:57;;;;;;;;;18.33;16.67;;;;;;;;5107670;28;8890;-75
2023/09/17 14:46:22;;;;;;;;;17.00;17.00;;;;;;;;5107552;28;8787;-75
2023/09/17 14:48:50;;;;;;;;;16.00;16.00;;;;;;;;5107525;28;8795;-75
2023/09/17 14:51:16;;;;;;;;;17.75;15.75;;;;;;;;5107446;28;8861;-75
2023/09/17 14:53:41;;;;;;;;;17.00;15.67;;;;;;;;5114856;27;8825;-75
2023/09/17 14:56:06;;;;;;;;;16.00;15.00;;;;;;;;5127853;27;8793;-76
2023/09/17 14:58:32;;;;;;;;;17.33;15.33;;;;;;;;5127606;27;8781;-76
2023/09/17 15:00:57;;;;;;;;;15.33;14.33;;;;;;;;5127849;27;8901;-76
2023/09/17 15:03:25;;;;;;;;;17.33;15.00;;;;;;;;5127887;27;8778;-76
2023/09/17 15:05:50;;;;;;;;;16.25;16.25;;;;;;;;5126302;27;9531;-75
2023/09/17 15:08:15;;;;;;;;;16.67;14.67;;;;;;;;5127798;27;8784;-76
2023/09/17 15:10:42;;;;;;;;;16.67;14.33;;;;;;;;5107530;27;9533;-74
2023/09/17 15:13:08;;;;;;;;;15.50;14.25;;;;;;;;5106901;28;8932;-74
2023/09/17 15:15:34;;;;;;;;;20.25;15.50;;;;;;;;5106811;28;8820;-72
2023/09/17 15:18:00;;;;;;;;;16.33;16.33;;;;;;;;5105466;28;9569;-72
2023/09/17 15:20:26;;;;;;;;;17.75;16.00;;;;;;;;5106882;28;8834;-74
2023/09/17 15:22:51;;;;;;;;;16.33;16.33;;;;;;;;5107243;27;8811;-73
2023/09/17 15:25:16;;;;;;;;;17.00;15.67;;;;;;;;5117490;28;8813;-73
2023/09/17 15:27:42;;;;;;;;;17.67;17.67;;;;;;;;5113767;28;8871;-74
2023/09/17 15:30:07;;;;;;;;;16.00;13.33;;;;;;;;5113407;27;8805;-73
2023/09/17 15:32:32;;;;;;;;;16.67;15.00;;;;;;;;5112309;28;8808;-76
2023/09/17 15:34:58;;;;;;;;;16.00;14.67;;;;;;;;5113611;28;9566;-75
2023/09/17 15:37:23;;;;;;;;;15.00;15.00;;;;;;;;5112196;28;8805;-75
2023/09/17 15:39:48;;;;;;;;;15.67;15.67;;;;;;;;5100905;28;8914;-74
2023/09/17 15:42:13;;;;;;;;;15.00;13.33;;;;;;;;5091689;28;8807;-74
2023/09/17 15:44:39;;;;;;;;;14.67;13.00;;;;;;;;5092958;28;9673;-67
2023/09/17 15:47:04;;;;;;;;;16.67;15.33;;;;;;;;5092642;28;8776;-68
2023/09/17 15:49:29;;;;;;;;;15.00;15.00;;;;;;;;5092828;28;8791;-72
2023/09/17 15:51:54;;;;;;;;;16.67;14.67;;;;;;;;5092785;28;8865;-72
2023/09/17 15:54:20;;;;;;;;;15.33;14.33;;;;;;;;5105165;28;8963;-71
2023/09/17 15:56:45;;;;;;;;;19.67;16.67;;;;;;;;5113123;28;8885;-68
2023/09/17 15:59:10;;;;;;;;;16.33;15.00;;;;;;;;5113178;28;8785;-73
2023/09/17 16:01:36;;;;;;;;;17.00;16.00;;;;;;;;5100729;28;8953;-67
2023/09/17 16:04:01;;;;;;;;;21.00;20.33;;;;;;;;5091106;28;9810;-74
2023/09/17 16:06:27;;;;;;;;;25.67;23.00;;;;;;;;5092536;28;8980;-73
2023/09/17 16:08:52;;;;;;;;;25.00;23.00;;;;;;;;5087882;28;8795;-73
2023/09/17 16:11:17;;;;;;;;;24.00;22.67;;;;;;;;5072012;28;8802;-74
2023/09/17 16:13:43;;;;;;;;;26.67;24.33;;;;;;;;5069918;28;8862;-75
2023/09/17 16:16:09;;;;;;;;;21.33;21.33;;;;;;;;5070327;28;8871;-74
2023/09/17 16:18:34;;;;;;;;;24.00;23.00;;;;;;;;5071671;28;8824;-74
2023/09/17 16:21:00;;;;;;;;;27.00;23.00;;;;;;;;5072069;28;8810;-74
2023/09/17 16:23:25;;;;;;;;;20.67;20.33;;;;;;;;5082511;28;8809;-74
2023/09/17 16:25:50;;;;;;;;;14.00;14.00;;;;;;;;5112550;28;9573;-74
2023/09/17 16:28:16;;;;;;;;;19.67;19.00;;;;;;;;5112628;28;8925;-79
2023/09/17 16:30:41;;;;;;;;;21.33;19.33;;;;;;;;5112063;28;8828;-76
2023/09/17 16:33:07;;;;;;;;;23.00;21.00;;;;;;;;5112096;28;11507;-74
2023/09/17 16:35:32;;;;;;;;;24.33;21.00;;;;;;;;5110833;28;8793;-76
2023/09/17 16:37:57;;;;;;;;;19.00;18.00;;;;;;;;5111104;28;8801;-73
2023/09/17 16:40:23;;;;;;;;;24.67;21.67;;;;;;;;5077511;28;8822;-73
2023/09/17 16:42:48;;;;;;;;;23.33;21.67;;;;;;;;5082996;28;8824;-71
2023/09/17 16:45:13;;;;;;;;;21.00;20.00;;;;;;;;5091058;28;8784;-70
2023/09/17 16:47:38;;;;;;;;;21.00;18.00;;;;;;;;5090765;28;9574;-75
2023/09/17 16:50:04;;;;;;;;;22.33;19.00;;;;;;;;5091362;28;8810;-72
2023/09/17 16:52:30;;;;;;;;;23.00;23.00;;;;;;;;5091504;28;8792;-71
2023/09/17 16:54:55;;;;;;;;;18.25;16.75;;;;;;;;5109029;28;8832;-75
2023/09/17 16:57:21;;;;;;;;;20.67;19.33;;;;;;;;5111779;28;8805;-69
2023/09/17 16:59:46;;;;;;;;;15.00;15.00;;;;;;;;5110987;28;8798;-72
2023/09/17 17:02:12;;;;;;;;;21.00;19.00;;;;;;;;5090279;28;8939;-70
2023/09/17 17:04:37;;;;;;;;;18.00;18.00;;;;;;;;5090972;28;8800;-71
2023/09/17 17:07:02;;;;;;;;;20.00;20.00;;;;;;;;5090336;28;8796;-71
2023/09/17 17:09:28;;;;;;;;;24.00;20.67;;;;;;;;5090719;28;8829;-74
2023/09/17 17:11:53;;;;;;;;;22.67;19.67;;;;;;;;5091388;28;8892;-75
2023/09/17 17:14:18;;;;;;;;;16.00;16.00;;;;;;;;5090851;28;8852;-74
2023/09/17 17:16:44;;;;;;;;;19.33;17.67;;;;;;;;5091010;28;9542;-75
2023/09/17 17:19:09;;;;;;;;;20.67;19.00;;;;;;;;5091266;28;8828;-76
2023/09/17 17:21:34;;;;;;;;;19.00;18.67;;;;;;;;5090460;28;8796;-74
2023/09/17 17:24:00;;;;;;;;;19.33;18.67;;;;;;;;5092393;28;8981;-73
2023/09/17 17:26:25;;;;;;;;;25.00;22.67;;;;;;;;5091056;28;9734;-74
2023/09/17 17:28:51;;;;;;;;;17.67;17.00;;;;;;;;5106504;28;8797;-75
2023/09/17 17:31:16;;;;;;;;;21.00;18.25;;;;;;;;5109650;28;8903;-75
2023/09/17 17:33:42;;;;;;;;;19.67;17.67;;;;;;;;5090667;28;8847;-76
2023/09/17 17:36:07;;;;;;;;;19.00;16.67;;;;;;;;5090300;28;8834;-70
2023/09/17 17:38:33;;;;;;;;;22.00;18.67;;;;;;;;5089219;28;8931;-75
2023/09/17 17:40:59;;;;;;;;;17.00;17.00;;;;;;;;5088519;28;8829;-75
2023/09/17 17:43:24;;;;;;;;;17.67;16.00;;;;;;;;5089862;28;8848;-74
2023/09/17 17:45:49;;;;;;;;;20.33;18.00;;;;;;;;5089763;28;8784;-75
2023/09/17 17:48:15;;;;;;;;;18.00;16.67;;;;;;;;5090082;28;8772;-74
2023/09/17 17:50:41;;;;;;;;;16.00;13.00;;;;;;;;5090786;28;8788;-73
2023/09/17 17:53:07;;;;;;;;;26.00;20.67;;;;;;;;5093248;28;8908;-75
2023/09/17 17:55:32;;;;;;;;;29.75;28.00;;;;;;;;5111051;28;8860;-75
2023/09/17 17:57:57;;;;;;;;;18.67;16.33;;;;;;;;5111031;28;8785;-76
2023/09/17 18:00:23;;;;;;;;;16.00;14.00;;;;;;;;5110578;28;8785;-74
2023/09/17 18:02:48;;;;;;;;;20.00;19.00;;;;;;;;5098170;28;9684;-74
2023/09/17 18:05:14;;;;;;;;;20.00;16.67;;;;;;;;5088164;28;8895;-76
2023/09/17 18:07:39;;;;;;;;;17.67;15.33;;;;;;;;5106228;28;8825;-79
2023/09/17 18:10:06;;;;;;;;;17.00;15.33;;;;;;;;5095776;28;8800;-75
2023/09/17 18:12:33;;;;;;;;;19.25;19.25;;;;;;;;5089836;28;8820;-80
2023/09/17 18:14:59;;;;;;;;;20.50;17.00;;;;;;;;5090428;28;8860;-80
2023/09/17 18:17:25;;;;;;;;;15.67;14.33;;;;;;;;5088838;28;8815;-79
2023/09/17 18:19:51;;;;;;;;;17.75;17.25;;;;;;;;5089145;28;8869;-79
2023/09/17 18:22:17;;;;;;;;;18.33;18.00;;;;;;;;5090273;28;8772;-80
2023/09/17 18:24:42;;;;;;;;;17.00;15.75;;;;;;;;5105709;28;9042;-79
2023/09/17 18:27:07;;;;;;;;;15.33;15.33;;;;;;;;5110685;28;8904;-79
2023/09/17 18:29:33;;;;;;;;;17.00;16.50;;;;;;;;5110202;28;8808;-78
2023/09/17 18:31:59;;;;;;;;;23.00;22.00;;;;;;;;5110480;28;8835;-77
2023/09/17 18:34:25;;;;;;;;;20.00;16.00;;;;;;;;5109005;28;8859;-79
2023/09/17 18:36:51;;;;;;;;;21.67;19.67;;;;;;;;5110424;28;8829;-77
2023/09/17 18:39:19;;;;;;;;;17.00;16.00;;;;;;;;5080854;22;9134;-69
2023/09/17 18:41:44;;;;;;;;;17.50;16.50;;;;;;;;5047200;28;8824;-69
2023/09/17 18:44:12;;;;;;;;;15.33;15.33;;;;;;;;5048633;28;8828;-68
2023/09/17 18:46:37;;;;;;;;;15.75;15.75;;;;;;;;5047485;28;8833;-68
2023/09/17 18:49:03;;;;;;;;;16.33;15.00;;;;;;;;5048900;28;8841;-68
2023/09/17 18:51:28;;;;;;;;;14.67;12.67;;;;;;;;5048652;28;8789;-69
